Time;durP1;ratioP1;P1;durP2;ratioP2;P2;SDS_P1;SDS_P2;PMS_P1;PMS_P2;Temp;Humidity;BMP_temperature;BMP_pressure;BME280_temperature;BME280_humidity;BME280_pressure;Samples;Min_cycle;Max_cycle;Signal;HPM_P1;HPM_P2
2022/04/27 00:01:10;;;;;;;14.90;8.23;;;;;;;7.76;65.13;102309.34;5079690;28;20024;-70
2022/04/27 00:03:35;;;;;;;13.82;8.05;;;;;;;7.76;65.10;102319.91;5045636;28;20605;-70
2022/04/27 00:06:01;;;;;;;12.50;8.70;;;;;;;7.82;65.26;102317.78;5047031;28;20676;-70
2022/04/27 00:08:26;;;;;;;15.40;8.75;;;;;;;7.78;65.68;102311.84;5048999;28;20025;-70
2022/04/27 00:10:51;;;;;;;12.55;8.27;;;;;;;7.82;65.45;102317.78;5050392;28;20040;-70
2022/04/27 00:13:16;;;;;;;15.35;8.73;;;;;;;7.80;65.57;102309.94;5047538;28;20028;-70
2022/04/27 00:15:42;;;;;;;11.85;8.70;;;;;;;7.74;65.56;102311.25;5049667;28;20479;-70
2022/04/27 00:18:07;;;;;;;14.98;8.77;;;;;;;7.59;65.75;102283.34;5046807;28;20032;-70
2022/04/27 00:20:32;;;;;;;12.30;8.93;;;;;;;7.73;65.79;102306.09;5049593;28;20036;-70
2022/04/27 00:22:58;;;;;;;12.55;8.70;;;;;;;7.62;65.79;102301.63;5048232;28;20103;-70
2022/04/27 00:25:23;;;;;;;15.27;8.68;;;;;;;7.62;65.74;102298.13;5047127;28;20121;-70
2022/04/27 00:27:49;;;;;;;13.60;8.70;;;;;;;7.66;65.67;102307.50;5050906;28;20033;-70
2022/04/27 00:30:14;;;;;;;14.10;8.40;;;;;;;7.44;65.70;102303.81;5047740;28;20060;-70
2022/04/27 00:32:39;;;;;;;11.70;8.38;;;;;;;7.36;66.07;102300.91;5048631;28;20784;-70
2022/04/27 00:35:08;;;;;;;12.88;8.40;;;;;;;7.26;66.09;102310.50;5047150;28;20574;-70
2022/04/27 00:37:33;;;;;;;13.57;8.93;;;;;;;7.19;66.23;102311.88;5046596;28;20036;-70
2022/04/27 00:39:58;;;;;;;13.85;8.93;;;;;;;7.11;66.46;102304.50;5048606;28;20039;-70
2022/04/27 00:42:24;;;;;;;12.50;8.75;;;;;;;7.04;66.61;102313.84;5047062;28;20432;-70
2022/04/27 00:44:50;;;;;;;17.40;9.02;;;;;;;6.93;66.55;102323.47;5046556;28;20056;-70
2022/04/27 00:47:16;;;;;;;12.48;9.35;;;;;;;6.70;66.80;102304.03;5050159;28;20040;-70
2022/04/27 00:49:48;;;;;;;12.53;9.50;;;;;;;6.67;67.12;102320.09;5046798;28;20090;-70
2022/04/27 00:52:14;;;;;;;14.33;9.73;;;;;;;6.53;67.12;102313.97;5045823;28;20093;-70
2022/04/27 00:54:46;;;;;;;17.50;10.05;;;;;;;6.50;67.52;102321.28;5045336;28;20409;-70
2022/04/27 00:57:11;;;;;;;15.77;10.50;;;;;;;6.36;68.09;102331.94;5042500;28;20655;-70
2022/04/27 00:59:37;;;;;;;15.47;11.00;;;;;;;6.18;68.27;102328.78;5048237;28;20033;-70
2022/04/27 01:02:04;;;;;;;13.60;9.10;;;;;;;5.99;69.00;102333.63;5045911;28;20551;-70
2022/04/27 01:04:31;;;;;;;10.87;8.97;;;;;;;5.80;69.41;102329.56;5048002;28;20064;-70
2022/04/27 01:06:56;;;;;;;11.63;9.50;;;;;;;5.73;69.42;102338.81;5049634;28;20063;-70
2022/04/27 01:09:24;;;;;;;13.87;9.47;;;;;;;5.69;69.79;102347.03;5042781;28;20053;-70
2022/04/27 01:11:50;;;;;;;14.60;9.57;;;;;;;5.62;69.92;102336.06;5050998;28;20484;-70
2022/04/27 01:14:15;;;;;;;17.03;10.13;;;;;;;5.61;70.12;102337.00;5044579;28;20140;-70
2022/04/27 01:16:40;;;;;;;13.83;9.47;;;;;;;5.58;70.20;102339.84;5045743;28;20422;-70
2022/04/27 01:19:05;;;;;;;13.87;9.83;;;;;;;5.64;70.40;102338.59;5043588;28;20033;-70
2022/04/27 01:21:31;;;;;;;11.80;9.63;;;;;;;5.72;70.64;102342.41;5045797;28;20056;-71
2022/04/27 01:23:56;;;;;;;14.37;9.60;;;;;;;5.74;70.66;102342.28;5040687;28;20025;-70
2022/04/27 01:26:22;;;;;;;14.63;9.97;;;;;;;5.84;70.60;102333.69;5046965;28;20442;-70
2022/04/27 01:28:47;;;;;;;13.97;9.93;;;;;;;5.81;70.52;102339.16;5047114;28;20374;-70
2022/04/27 01:31:12;;;;;;;17.07;10.07;;;;;;;5.86;70.67;102347.63;5050493;28;20036;-70
2022/04/27 01:33:39;;;;;;;14.00;10.17;;;;;;;5.88;70.89;102339.59;5044384;28;20595;-70
2022/04/27 01:36:06;;;;;;;14.37;10.43;;;;;;;6.00;71.22;102340.59;5046380;28;20025;-70
2022/04/27 01:38:35;;;;;;;15.63;10.30;;;;;;;6.08;71.12;102339.13;5046562;28;20031;-70
2022/04/27 01:41:00;;;;;;;18.17;11.07;;;;;;;6.09;70.86;102339.97;5049882;28;20595;-70
2022/04/27 01:43:25;;;;;;;16.30;11.00;;;;;;;6.04;71.22;102340.25;5042031;28;20031;-70
2022/04/27 01:45:54;;;;;;;15.10;9.70;;;;;;;5.97;71.03;102340.78;5050827;28;20029;-70
2022/04/27 01:48:19;;;;;;;15.50;10.03;;;;;;;5.88;71.08;102340.44;5047437;28;20037;-70
2022/04/27 01:50:45;;;;;;;12.67;10.53;;;;;;;5.86;70.88;102349.41;5049372;28;20033;-70
2022/04/27 01:55:55;;;;;;;13.13;9.60;;;;;;;5.78;71.25;102349.06;5045224;28;20036;-70
2022/04/27 01:58:20;;;;;;;14.20;10.07;;;;;;;5.73;71.42;102344.09;5050314;28;20033;-71
2022/04/27 02:00:47;;;;;;;16.17;10.53;;;;;;;5.69;71.54;102345.25;5047094;28;20114;-70
2022/04/27 02:03:13;;;;;;;19.20;11.07;;;;;;;5.64;71.72;102352.63;5049091;28;20086;-70
2022/04/27 02:05:39;;;;;;;17.17;10.73;;;;;;;5.62;71.74;102362.41;5051006;28;20032;-70
2022/04/27 02:08:05;;;;;;;15.57;10.93;;;;;;;5.57;72.04;102364.50;5050899;28;20036;-70
2022/04/27 02:10:30;;;;;;;17.60;11.33;;;;;;;5.51;72.09;102357.03;5050005;28;20032;-70
2022/04/27 02:12:55;;;;;;;16.90;11.87;;;;;;;5.47;72.13;102363.41;5050149;28;20607;-70
2022/04/27 02:15:21;;;;;;;17.57;10.53;;;;;;;5.38;72.43;102372.75;5051223;28;20040;-71
2022/04/27 02:17:46;;;;;;;12.60;9.03;;;;;;;5.32;72.61;102373.16;5050858;28;20078;-70
2022/04/27 02:20:11;;;;;;;13.57;9.07;;;;;;;5.25;72.84;102372.72;5050356;28;20033;-70
2022/04/27 02:22:37;;;;;;;16.13;10.90;;;;;;;5.27;73.20;102369.97;5056276;28;20032;-70
2022/04/27 02:25:04;;;;;;;16.17;11.40;;;;;;;5.33;73.48;102372.22;5049442;28;20024;-70
2022/04/27 02:27:29;;;;;;;16.17;11.10;;;;;;;5.41;73.73;102374.34;5051059;28;20047;-70
2022/04/27 02:29:55;;;;;;;15.00;11.60;;;;;;;5.41;73.80;102374.34;5053710;28;20029;-70
2022/04/27 02:32:21;;;;;;;16.03;11.03;;;;;;;5.51;74.08;102372.81;5053316;28;20093;-70
2022/04/27 02:34:46;;;;;;;18.10;11.87;;;;;;;5.53;73.73;102381.47;5048407;28;20021;-70
2022/04/27 02:37:11;;;;;;;16.93;11.23;;;;;;;5.51;73.78;102386.84;5047131;28;20035;-70
2022/04/27 02:39:36;;;;;;;15.33;10.03;;;;;;;5.52;73.59;102387.69;5050221;28;20044;-70
2022/04/27 02:42:03;;;;;;;12.57;10.23;;;;;;;5.55;73.79;102382.22;5044786;28;20025;-71
2022/04/27 02:44:28;;;;;;;14.37;11.07;;;;;;;5.55;73.53;102387.50;5047548;28;20112;-70
2022/04/27 02:46:53;;;;;;;15.77;10.97;;;;;;;5.60;73.63;102386.25;5045609;28;20120;-70
2022/04/27 02:52:03;;;;;;;14.63;10.87;;;;;;;5.46;73.32;102396.81;5042812;28;20413;-70
2022/04/27 02:54:28;;;;;;;13.93;10.67;;;;;;;5.36;73.28;102382.56;5052947;28;20024;-70
2022/04/27 02:56:54;;;;;;;12.90;10.57;;;;;;;5.27;73.41;102388.44;5048099;28;20032;-70
2022/04/27 02:59:20;;;;;;;19.77;11.37;;;;;;;5.23;73.29;102381.66;5049366;28;20033;-71
2022/04/27 03:01:45;;;;;;;17.80;10.73;;;;;;;5.13;73.44;102378.75;5051576;28;20025;-70
2022/04/27 03:04:10;;;;;;;16.40;10.97;;;;;;;5.12;73.55;102387.59;5049634;28;20371;-71
2022/04/27 03:06:36;;;;;;;14.07;10.67;;;;;;;5.07;73.67;102383.56;5047864;28;20115;-71
2022/04/27 03:09:02;;;;;;;18.33;11.13;;;;;;;5.01;73.70;102387.44;5049261;28;20512;-71
2022/04/27 03:11:27;;;;;;;12.30;9.87;;;;;;;4.90;73.64;102374.09;5048874;28;20033;-71
2022/04/27 03:13:53;;;;;;;13.13;9.93;;;;;;;4.94;73.87;102387.00;5044566;28;20103;-71
2022/04/27 03:16:18;;;;;;;15.67;11.37;;;;;;;4.95;74.05;102393.94;5046056;28;20040;-71
2022/04/27 03:18:44;;;;;;;15.30;11.30;;;;;;;4.91;74.02;102381.88;5044532;28;20406;-71
2022/04/27 03:21:10;;;;;;;14.63;10.97;;;;;;;4.95;74.24;102393.94;5047589;28;20029;-71
2022/04/27 03:23:35;;;;;;;15.50;11.67;;;;;;;4.90;74.28;102390.72;5049687;28;20021;-71
2022/04/27 03:26:01;;;;;;;7.27;5.70;;;;;;;4.77;74.10;102395.06;5047430;28;20036;-71
2022/04/27 03:28:26;;;;;;;10.77;6.77;;;;;;;4.68;74.07;102402.69;5046461;28;20033;-71
2022/04/27 03:30:51;;;;;;;17.27;5.23;;;;;;;4.55;74.26;102397.31;5047664;28;20541;-71
2022/04/27 03:33:17;;;;;;;119.03;7.63;;;;;;;4.43;74.59;102401.56;5050389;28;20037;-71
2022/04/27 03:35:42;;;;;;;11.57;7.27;;;;;;;4.34;75.01;102388.97;5048474;28;20060;-71
2022/04/27 03:38:09;;;;;;;10.60;8.03;;;;;;;4.36;75.20;102394.97;5049481;28;20035;-71
2022/04/27 03:40:35;;;;;;;26.93;11.73;;;;;;;4.27;75.68;102391.09;5045918;28;20059;-71
2022/04/27 03:43:01;;;;;;;14.57;11.63;;;;;;;4.25;75.82;102385.09;5048813;28;20032;-71
2022/04/27 03:45:26;;;;;;;14.30;11.27;;;;;;;4.26;76.03;102394.66;5058260;28;20540;-71
2022/04/27 03:47:51;;;;;;;13.00;10.07;;;;;;;4.29;76.09;102396.25;5049561;28;20509;-71
2022/04/27 03:50:17;;;;;;;9.27;8.23;;;;;;;4.24;76.30;102400.94;5048504;28;20103;-70
2022/04/27 03:52:43;;;;;;;6.53;5.90;;;;;;;4.14;76.14;102411.19;5049742;28;20603;-71
2022/04/27 03:55:10;;;;;;;7.50;6.17;;;;;;;4.15;76.36;102415.50;5047317;28;20390;-71
2022/04/27 03:57:37;;;;;;;6.53;5.90;;;;;;;4.16;76.44;102413.72;5048251;28;20032;-70
2022/04/27 04:00:04;;;;;;;6.57;5.93;;;;;;;4.15;76.57;102402.34;5052081;28;20064;-71
2022/04/27 04:02:29;;;;;;;10.03;8.20;;;;;;;4.17;76.66;102413.63;5047728;28;20060;-71
2022/04/27 04:04:55;;;;;;;16.40;11.90;;;;;;;4.18;76.90;102415.31;5046723;28;20056;-71
2022/04/27 04:07:20;;;;;;;13.43;10.27;;;;;;;4.18;76.70;102411.84;5048059;28;20116;-70
2022/04/27 04:09:45;;;;;;;11.03;8.37;;;;;;;4.21;76.96;102416.91;5051316;28;20020;-70
2022/04/27 04:12:11;;;;;;;10.43;7.40;;;;;;;4.20;76.92;102416.06;5051414;28;20111;-70
2022/04/27 04:14:36;;;;;;;10.17;8.00;;;;;;;4.18;76.96;102417.09;5046696;28;20033;-71
2022/04/27 04:17:02;;;;;;;11.27;7.40;;;;;;;4.16;77.18;102426.84;5050292;28;20039;-71
2022/04/27 04:19:28;;;;;;;9.73;7.33;;;;;;;4.13;77.14;102424.41;5040866;28;20057;-71
2022/04/27 04:21:54;;;;;;;12.63;7.13;;;;;;;4.10;77.12;102424.59;5044719;28;20120;-71
2022/04/27 04:24:19;;;;;;;10.53;7.43;;;;;;;4.05;77.05;102427.50;5046274;28;20025;-70
2022/04/27 04:29:31;;;;;;;10.73;8.83;;;;;;;4.13;77.22;102432.31;5044546;28;20105;-71
2022/04/27 04:31:56;;;;;;;10.57;8.57;;;;;;;4.21;77.44;102432.69;5046119;28;20052;-70
2022/04/27 04:34:22;;;;;;;11.10;8.20;;;;;;;4.22;77.52;102439.63;5047193;28;20052;-70
2022/04/27 04:36:47;;;;;;;7.50;6.47;;;;;;;4.16;77.34;102445.25;5049395;28;20054;-70
2022/04/27 04:39:12;;;;;;;7.30;6.03;;;;;;;4.11;76.86;102450.78;5045684;28;20512;-71
2022/04/27 04:41:38;;;;;;;7.33;6.30;;;;;;;4.07;76.87;102446.66;5050061;28;20025;-70
2022/04/27 04:44:03;;;;;;;8.80;5.80;;;;;;;4.01;76.66;102453.09;5044637;28;20024;-71
2022/04/27 04:46:29;;;;;;;9.50;6.27;;;;;;;4.01;76.95;102457.50;5045572;28;20048;-70
2022/04/27 04:48:54;;;;;;;46.57;6.67;;;;;;;3.95;77.01;102461.34;5051516;28;20036;-70
2022/04/27 04:51:19;;;;;;;101.60;12.00;;;;;;;3.89;77.44;102456.44;5045042;28;20037;-71
2022/04/27 04:53:44;;;;;;;41.63;11.03;;;;;;;3.83;77.72;102469.09;5048575;28;20064;-70
2022/04/27 04:56:10;;;;;;;55.87;10.73;;;;;;;3.79;77.96;102464.94;5046917;28;20514;-70
2022/04/27 04:58:35;;;;;;;11.87;9.17;;;;;;;3.77;78.13;102465.03;5048514;28;20028;-70
2022/04/27 05:01:02;;;;;;;9.97;8.37;;;;;;;3.68;78.30;102460.25;5046461;28;20737;-71
2022/04/27 05:03:27;;;;;;;9.67;8.67;;;;;;;3.72;78.44;102469.66;5049387;28;20709;-70
2022/04/27 05:05:53;;;;;;;10.43;9.43;;;;;;;3.71;78.56;102474.06;5044788;28;20166;-70
2022/04/27 05:08:18;;;;;;;11.40;10.27;;;;;;;3.72;78.48;102469.66;5046844;28;20421;-70
2022/04/27 05:10:44;;;;;;;12.53;11.23;;;;;;;3.69;78.75;102469.84;5046048;28;20033;-70
2022/04/27 05:13:09;;;;;;;11.90;10.67;;;;;;;3.76;78.76;102472.97;5047064;28;20052;-70
2022/04/27 05:15:34;;;;;;;12.10;10.80;;;;;;;3.89;79.24;102480.09;5048220;28;20028;-70
2022/04/27 05:18:00;;;;;;;12.87;11.13;;;;;;;3.95;79.35;102484.13;5047055;28;20044;-70
2022/04/27 05:20:25;;;;;;;11.83;10.53;;;;;;;3.97;79.16;102484.91;5048931;28;20064;-70
2022/04/27 05:22:50;;;;;;;11.47;9.80;;;;;;;4.01;79.09;102484.63;5046956;28;20462;-71
2022/04/27 05:25:16;;;;;;;9.50;8.50;;;;;;;3.97;78.99;102475.22;5045740;28;20398;-70
2022/04/27 05:27:41;;;;;;;8.60;7.70;;;;;;;4.09;79.16;102493.88;5051921;28;20036;-70
2022/04/27 05:32:51;;;;;;;12.90;10.90;;;;;;;4.25;79.64;102500.78;5044255;28;20040;-71
2022/04/27 05:35:17;;;;;;;21.37;14.43;;;;;;;4.32;79.87;102512.63;5043901;28;20049;-70
2022/04/27 05:37:42;;;;;;;15.17;11.87;;;;;;;4.27;80.16;102488.38;5050692;28;20116;-71
2022/04/27 05:40:09;;;;;;;17.70;12.37;;;;;;;4.34;80.12;102502.06;5056099;28;20021;-70
2022/04/27 05:42:36;;;;;;;15.83;12.40;;;;;;;4.47;80.07;102508.28;5047477;28;20032;-70
2022/04/27 05:45:02;;;;;;;16.30;13.03;;;;;;;4.54;80.40;102508.75;5046778;28;20027;-70
2022/04/27 05:47:27;;;;;;;20.17;15.80;;;;;;;4.64;80.79;102509.94;5046684;28;20044;-70
2022/04/27 05:49:53;;;;;;;18.13;14.43;;;;;;;4.70;80.97;102503.44;5048845;28;20032;-70
2022/04/27 05:52:20;;;;;;;18.53;14.90;;;;;;;4.79;81.18;102519.53;5050329;28;20041;-68
2022/04/27 05:54:46;;;;;;;21.50;15.97;;;;;;;4.79;81.44;102526.56;5043329;28;20024;-68
2022/04/27 05:57:11;;;;;;;22.07;16.27;;;;;;;4.91;81.53;102520.56;5049966;28;20443;-68
2022/04/27 05:59:36;;;;;;;23.97;16.83;;;;;;;4.95;81.76;102525.56;5050405;28;20025;-68
2022/04/27 06:02:02;;;;;;;25.13;16.67;;;;;;;5.03;82.04;102518.97;5058321;28;20439;-67
2022/04/27 06:04:27;;;;;;;27.87;18.20;;;;;;;5.17;82.23;102529.50;5048066;28;20082;-67
2022/04/27 06:06:53;;;;;;;30.47;17.37;;;;;;;5.26;82.31;102531.59;5056468;28;20033;-68
2022/04/27 06:09:18;;;;;;;29.30;18.07;;;;;;;5.38;82.41;102527.34;5050324;28;20028;-68
2022/04/27 06:11:43;;;;;;;24.57;16.20;;;;;;;5.61;82.76;102532.03;5050401;28;20029;-69
2022/04/27 06:14:09;;;;;;;23.00;16.07;;;;;;;5.74;82.71;102526.81;5050196;28;20566;-68
2022/04/27 06:16:35;;;;;;;23.50;16.20;;;;;;;6.01;82.88;102532.13;5051858;28;20090;-68
2022/04/27 06:19:01;;;;;;;21.80;15.33;;;;;;;6.16;82.93;102537.28;5056335;28;20116;-68
2022/04/27 06:21:31;;;;;;;22.30;15.30;;;;;;;6.37;82.90;102540.31;5050608;28;20029;-69
2022/04/27 06:23:56;;;;;;;20.90;14.67;;;;;;;6.57;82.46;102538.09;5049164;28;20032;-68
2022/04/27 06:26:21;;;;;;;20.87;14.63;;;;;;;6.80;82.68;102532.97;5052039;28;20029;-68
2022/04/27 06:28:47;;;;;;;21.77;15.10;;;;;;;7.07;82.14;102543.44;5051412;28;20024;-67
2022/04/27 06:31:12;;;;;;;27.23;14.70;;;;;;;7.29;81.71;102544.59;5050607;28;20017;-68
2022/04/27 06:33:37;;;;;;;23.83;13.67;;;;;;;7.45;81.25;102545.19;5050188;28;20462;-68
2022/04/27 06:36:03;;;;;;;22.10;13.50;;;;;;;7.55;80.65;102551.53;5055383;28;20021;-68
2022/04/27 06:38:28;;;;;;;23.27;13.13;;;;;;;7.76;80.09;102552.63;5055180;28;20029;-68
2022/04/27 06:40:54;;;;;;;20.73;12.33;;;;;;;7.88;79.20;102555.38;5049557;28;20028;-68
2022/04/27 06:43:19;;;;;;;18.57;12.03;;;;;;;8.08;78.81;102554.75;5044133;28;20059;-67
2022/04/27 06:45:44;;;;;;;21.20;12.63;;;;;;;8.29;78.34;102553.16;5079311;28;20401;-68
2022/04/27 06:48:10;;;;;;;17.88;11.48;;;;;;;8.47;77.72;102553.66;5049375;28;20036;-68
2022/04/27 06:50:35;;;;;;;20.67;11.52;;;;;;;8.55;76.82;102558.34;5049887;28;20049;-68
2022/04/27 06:53:00;;;;;;;16.73;11.75;;;;;;;8.71;76.05;102564.19;5046861;28;20029;-68
2022/04/27 06:55:26;;;;;;;21.63;12.27;;;;;;;8.82;75.32;102572.16;5048658;28;20595;-68
2022/04/27 06:57:52;;;;;;;19.48;11.20;;;;;;;8.84;74.86;102561.44;5034437;28;20021;-68
2022/04/27 07:00:18;;;;;;;19.63;11.13;;;;;;;8.95;74.62;102580.84;5055912;28;20021;-67
2022/04/27 07:02:43;;;;;;;19.60;11.75;;;;;;;9.15;74.18;102573.19;5049615;28;20519;-68
2022/04/27 07:05:16;;;;;;;15.80;11.25;;;;;;;9.24;73.80;102564.50;5047808;28;20021;-68
2022/04/27 07:07:41;;;;;;;15.73;10.45;;;;;;;9.37;72.89;102575.88;5049353;28;20028;-68
2022/04/27 07:10:07;;;;;;;16.10;10.60;;;;;;;9.28;72.36;102568.63;5049086;28;20025;-68
2022/04/27 07:12:32;;;;;;;18.88;10.32;;;;;;;9.43;72.19;102572.72;5048700;28;20025;-68
2022/04/27 07:14:57;;;;;;;15.70;10.20;;;;;;;9.51;71.89;102578.25;5048503;28;20508;-69
2022/04/27 07:17:23;;;;;;;16.30;10.48;;;;;;;9.55;71.50;102573.59;5047507;28;20028;-69
2022/04/27 07:19:48;;;;;;;18.17;10.70;;;;;;;9.70;71.27;102579.47;5049275;28;20024;-68
2022/04/27 07:22:14;;;;;;;18.75;9.73;;;;;;;9.73;70.56;102587.19;5048737;28;20375;-68
2022/04/27 07:24:39;;;;;;;15.85;9.30;;;;;;;9.75;70.02;102582.59;5048169;28;20021;-69
2022/04/27 07:27:05;;;;;;;13.38;8.00;;;;;;;9.83;69.21;102588.13;5048868;28;20047;-68
2022/04/27 07:29:30;;;;;;;17.00;8.70;;;;;;;9.84;68.65;102587.19;5048954;28;20032;-68
2022/04/27 07:31:55;;;;;;;11.98;8.30;;;;;;;9.86;67.98;102594.06;5049252;28;20025;-68
2022/04/27 07:34:21;;;;;;;13.55;7.28;;;;;;;9.93;67.19;102592.59;5048121;28;20013;-68
2022/04/27 07:36:46;;;;;;;15.98;7.80;;;;;;;9.95;66.91;102595.13;5048758;28;20043;-68
2022/04/27 07:39:12;;;;;;;14.38;6.88;;;;;;;9.99;66.17;102595.69;5048423;28;20028;-67
2022/04/27 07:41:37;;;;;;;11.25;7.22;;;;;;;9.98;65.88;102594.03;5048898;28;20123;-69
2022/04/27 07:44:02;;;;;;;13.65;7.38;;;;;;;9.92;64.83;102598.84;5047377;28;20017;-68
2022/04/27 07:46:28;;;;;;;11.95;7.65;;;;;;;10.07;65.16;102598.56;5048619;28;20032;-68
2022/04/27 07:48:54;;;;;;;15.13;7.63;;;;;;;10.26;64.81;102597.97;5047888;28;20409;-68
2022/04/27 07:51:20;;;;;;;11.48;7.40;;;;;;;10.33;64.76;102599.97;5048613;28;20094;-68
2022/04/27 07:53:45;;;;;;;11.02;6.65;;;;;;;10.52;64.43;102609.94;5047147;28;20028;-69
2022/04/27 07:56:11;;;;;;;7.38;4.90;;;;;;;10.49;63.46;102604.91;5048412;28;20033;-68
2022/04/27 07:58:36;;;;;;;11.18;5.55;;;;;;;10.65;62.56;102607.09;5048365;28;20478;-68
2022/04/27 08:01:02;;;;;;;8.48;4.95;;;;;;;10.72;62.16;102606.50;5048426;28;20039;-68
2022/04/27 08:03:28;;;;;;;15.05;4.97;;;;;;;10.80;61.73;102605.84;5047583;28;20031;-68
2022/04/27 08:05:53;;;;;;;10.45;5.40;;;;;;;10.66;59.98;102612.28;5048185;28;20028;-68
2022/04/27 08:08:19;;;;;;;9.45;5.10;;;;;;;10.47;59.28;102610.34;5046135;28;20040;-69
2022/04/27 08:10:44;;;;;;;10.88;5.80;;;;;;;10.44;58.98;102615.91;5050581;28;20025;-68
2022/04/27 08:13:10;;;;;;;12.15;4.85;;;;;;;10.52;59.13;102618.75;5046878;28;20035;-68
2022/04/27 08:15:35;;;;;;;9.52;5.53;;;;;;;10.54;59.38;102611.50;5044009;28;20111;-68
2022/04/27 08:18:08;;;;;;;9.88;5.40;;;;;;;10.73;59.50;102615.31;5045724;28;20037;-68
2022/04/27 08:23:29;;;;;;;6.50;4.43;;;;;;;10.89;57.80;102617.50;5047256;28;20064;-68
2022/04/27 08:25:56;;;;;;;7.28;4.03;;;;;;;10.99;57.22;102624.59;5046730;28;20096;-68
2022/04/27 08:28:22;;;;;;;11.38;3.97;;;;;;;10.93;56.17;102629.56;5043541;28;20033;-68
2022/04/27 08:30:49;;;;;;;8.60;3.40;;;;;;;10.99;56.43;102629.91;5047726;28;20028;-68
2022/04/27 08:33:15;;;;;;;5.82;3.70;;;;;;;10.97;56.25;102625.66;5047257;28;20029;-68
2022/04/27 08:35:41;;;;;;;8.20;3.90;;;;;;;11.05;55.52;102632.03;5047825;28;20082;-68
2022/04/27 08:38:07;;;;;;;7.80;3.80;;;;;;;11.14;55.66;102625.09;5047815;28;20029;-68
2022/04/27 08:40:37;;;;;;;10.10;4.43;;;;;;;11.26;55.87;102631.16;5047646;28;20040;-68
2022/04/27 08:43:03;;;;;;;7.85;4.28;;;;;;;11.38;55.39;102622.16;5046822;28;20044;-68
2022/04/27 08:45:29;;;;;;;7.43;4.20;;;;;;;11.40;54.38;102626.38;5047246;28;20543;-68
2022/04/27 08:47:55;;;;;;;7.55;4.28;;;;;;;11.46;54.15;102639.13;5047547;28;20112;-68
2022/04/27 08:50:22;;;;;;;9.65;5.05;;;;;;;11.48;54.05;102633.69;5046915;28;20673;-68
2022/04/27 08:52:49;;;;;;;9.10;4.80;;;;;;;11.51;53.72;102628.09;5047432;28;20461;-68
2022/04/27 08:55:15;;;;;;;17.85;4.95;;;;;;;11.59;53.43;102627.44;5046509;28;20029;-69
2022/04/27 08:57:41;;;;;;;8.63;4.82;;;;;;;11.63;53.24;102634.19;5047500;28;20029;-68
2022/04/27 09:00:08;;;;;;;12.43;5.13;;;;;;;11.61;52.65;102636.13;5046613;28;20756;-68
2022/04/27 09:02:35;;;;;;;14.32;4.97;;;;;;;11.53;51.63;102634.13;5046944;28;20490;-68
2022/04/27 09:05:17;;;;;;;10.57;5.10;;;;;;;11.52;51.86;102645.75;5043920;28;20117;-68
2022/04/27 09:07:50;;;;;;;7.90;5.20;;;;;;;11.49;51.64;102644.19;5046964;28;20032;-68
2022/04/27 09:10:17;;;;;;;7.70;4.60;;;;;;;11.43;51.28;102646.53;5047288;28;20621;-68
2022/04/27 09:12:48;;;;;;;8.18;4.85;;;;;;;11.29;51.06;102646.91;5046414;28;20031;-68
2022/04/27 09:15:15;;;;;;;11.07;5.50;;;;;;;11.28;51.37;102646.06;5046281;28;20033;-68
2022/04/27 09:23:24;;;;;;;8.68;4.45;;;;;;;11.83;52.63;102643.94;5046366;28;20044;-69
2022/04/27 09:25:53;;;;;;;9.30;5.05;;;;;;;11.83;50.83;102641.28;5042274;28;20017;-68
2022/04/27 09:28:22;;;;;;;11.23;5.28;;;;;;;11.99;50.80;102635.47;5045330;28;20033;-68
2022/04/27 09:30:48;;;;;;;10.23;5.20;;;;;;;12.23;50.36;102625.28;5047129;28;20119;-68
2022/04/27 09:33:28;;;;;;;9.25;5.00;;;;;;;12.31;50.45;102633.44;5046310;28;20175;-68
2022/04/27 09:35:53;;;;;;;;;;;;;;;12.63;49.85;102635.00;5079290;28;20102;-68
2022/04/27 09:38:19;;;;;;;8.63;5.03;;;;;;;12.59;49.18;102628.25;5046762;28;20523;-68
2022/04/27 09:40:50;;;;;;;8.55;5.00;;;;;;;12.63;48.94;102629.66;5046554;28;20032;-68
2022/04/27 09:43:16;;;;;;;10.60;5.80;;;;;;;12.94;49.22;102633.03;5042982;28;20036;-69
2022/04/27 09:45:43;;;;;;;9.43;5.47;;;;;;;13.10;49.18;102637.78;5045913;28;20409;-69
2022/04/27 09:48:15;;;;;;;10.75;6.05;;;;;;;13.40;49.45;102639.44;5047065;28;20037;-69
2022/04/27 09:50:55;;;;;;;9.20;5.70;;;;;;;13.58;49.36;102643.00;5044774;28;20493;-69
2022/04/27 09:53:20;;;;;;;;;;;;;;;13.82;48.03;102645.16;5046085;28;20135;-68
2022/04/27 09:55:54;;;;;;;9.27;5.97;;;;;;;13.62;47.25;102639.09;5047267;28;20325;-69
2022/04/27 09:58:21;;;;;;;9.85;6.10;;;;;;;13.55;47.72;102627.28;5046877;28;20028;-69
2022/04/27 10:00:48;;;;;;;9.65;6.28;;;;;;;13.80;48.56;102633.78;5046539;28;20055;-69
2022/04/27 10:03:15;;;;;;;10.52;5.97;;;;;;;14.01;47.58;102637.06;5045321;28;20033;-69
2022/04/27 10:05:42;;;;;;;12.32;5.78;;;;;;;14.08;47.04;102643.47;5046394;28;20186;-69
2022/04/27 10:08:09;;;;;;;10.07;6.13;;;;;;;14.25;46.90;102636.50;5046480;28;20410;-68
2022/04/27 10:10:41;;;;;;;11.20;6.30;;;;;;;14.66;46.78;102643.13;5079205;28;20492;-69
2022/04/27 10:13:12;;;;;;;9.68;6.10;;;;;;;15.20;47.88;102649.25;5045471;28;20054;-69
2022/04/27 10:15:45;;;;;;;10.88;6.82;;;;;;;15.53;47.25;102642.25;5046230;28;20028;-69
2022/04/27 10:18:15;;;;;;;9.32;6.10;;;;;;;15.62;46.68;102637.81;5044263;28;20036;-69
2022/04/27 10:20:40;;;;;;;10.30;6.38;;;;;;;15.57;46.23;102632.06;5046657;28;20029;-69
2022/04/27 10:23:27;;;;;;;12.15;6.97;;;;;;;15.40;46.33;102634.66;5046437;28;20029;-69
2022/04/27 10:26:10;;;;;;;8.65;6.32;;;;;;;15.22;46.27;102636.53;5048019;28;20377;-69
2022/04/27 10:28:38;;;;;;;12.00;6.55;;;;;;;15.17;46.01;102631.66;5045984;28;20017;-69
2022/04/27 10:31:07;;;;;;;10.10;6.32;;;;;;;15.55;46.07;102632.22;5050143;28;20066;-70
2022/04/27 10:33:38;;;;;;;11.63;7.00;;;;;;;15.76;45.42;102627.34;5049241;28;20028;-70
2022/04/27 10:36:23;;;;;;;10.38;6.50;;;;;;;15.74;44.34;102631.19;5049842;28;20032;-69
2022/04/27 10:39:10;;;;;;;10.57;6.55;;;;;;;15.55;43.14;102631.38;5050044;28;20025;-69
2022/04/27 10:41:35;;;;;;;10.90;7.10;;;;;;;15.86;44.64;102624.50;5043602;28;20032;-69
2022/04/27 10:44:01;;;;;;;10.18;7.10;;;;;;;16.18;45.80;102623.78;5048576;28;20021;-70
2022/04/27 10:46:38;;;;;;;10.10;7.35;;;;;;;16.25;45.00;102621.31;5049917;28;20044;-70
2022/04/27 10:49:23;;;;;;;10.95;7.25;;;;;;;16.06;42.92;102625.09;5049252;28;20025;-69
2022/04/27 10:52:08;;;;;;;11.75;7.68;;;;;;;15.95;43.07;102625.41;5045260;28;20033;-69
2022/04/27 10:54:38;;;;;;;10.68;7.43;;;;;;;16.20;43.31;102626.31;5048441;28;20025;-70
2022/04/27 10:57:19;;;;;;;14.30;7.40;;;;;;;16.05;42.59;102628.78;5048998;28;20637;-69
2022/04/27 10:59:47;;;;;;;10.98;7.43;;;;;;;15.71;41.58;102620.78;5044083;28;20035;-69
2022/04/27 11:02:35;;;;;;;11.00;6.93;;;;;;;15.84;43.14;102620.31;5049597;28;20040;-69
2022/04/27 11:05:05;;;;;;;9.45;7.15;;;;;;;15.75;43.65;102625.66;5048269;28;20029;-70
2022/04/27 11:07:58;;;;;;;10.93;7.00;;;;;;;15.77;43.28;102617.47;5049589;28;20513;-69
2022/04/27 11:10:24;;;;;;;9.75;7.35;;;;;;;15.93;44.28;102614.00;5044426;28;20028;-69
2022/04/27 11:12:52;;;;;;;9.38;7.00;;;;;;;16.10;43.85;102626.44;5048541;28;20031;-70
2022/04/27 11:15:23;;;;;;;10.25;7.20;;;;;;;16.32;44.12;102612.44;5081121;28;20541;-69
2022/04/27 11:18:13;;;;;;;9.55;6.88;;;;;;;16.70;44.90;102619.03;5048969;28;20021;-69
2022/04/27 11:20:39;;;;;;;11.98;6.75;;;;;;;16.86;43.25;102620.88;5048281;28;20028;-70
2022/04/27 11:23:07;;;;;;;8.85;6.43;;;;;;;16.80;43.09;102618.03;5048179;28;20035;-70
2022/04/27 11:25:39;;;;;;;12.87;7.10;;;;;;;16.98;42.99;102626.75;5048789;28;20090;-69
2022/04/27 11:28:06;;;;;;;9.85;7.25;;;;;;;16.53;41.49;102619.16;5048802;28;20037;-69
2022/04/27 11:30:32;;;;;;;10.38;6.85;;;;;;;16.72;41.66;102618.84;5048707;28;20179;-69
2022/04/27 11:33:00;;;;;;;9.32;6.75;;;;;;;16.81;40.88;102622.41;5048282;28;20441;-69
2022/04/27 11:35:38;;;;;;;9.50;6.95;;;;;;;16.64;40.55;102605.41;5048393;28;20017;-69
2022/04/27 11:38:04;;;;;;;10.25;7.03;;;;;;;16.98;41.78;102618.69;5049195;28;20078;-70
2022/04/27 11:40:36;;;;;;;10.18;7.07;;;;;;;17.22;41.62;102623.19;5048701;28;20028;-69